createdAt,value
2019-04-27T00:01:48.658Z,12.57
2019-04-27T00:04:43.084Z,13.93
2019-04-27T00:07:33.736Z,13.47
2019-04-27T00:10:30.581Z,12.17
2019-04-27T00:13:05.579Z,13.17
2019-04-27T00:15:50.927Z,11.73
2019-04-27T00:18:45.489Z,11.97
2019-04-27T00:21:25.736Z,12.57
2019-04-27T00:23:56.973Z,14.90
2019-04-27T00:26:28.345Z,12.40
2019-04-27T00:29:00.429Z,12.90
2019-04-27T00:31:31.506Z,12.63
2019-04-27T00:34:03.566Z,16.40
2019-04-27T00:36:40.944Z,13.10
2019-04-27T00:39:24.104Z,14.57
2019-04-27T00:41:55.396Z,12.70
2019-04-27T00:44:26.763Z,14.80
2019-04-27T00:46:58.078Z,13.23
2019-04-27T00:49:29.407Z,12.37
2019-04-27T00:52:00.646Z,13.10
2019-04-27T00:54:33.864Z,12.20
2019-04-27T00:57:15.336Z,12.97
2019-04-27T01:00:06.885Z,13.40
2019-04-27T01:02:51.247Z,12.33
2019-04-27T01:05:24.511Z,12.97
2019-04-27T01:07:55.896Z,13.33
2019-04-27T01:10:28.192Z,13.93
2019-04-27T01:12:59.751Z,12.90
2019-04-27T01:15:31.105Z,12.20
2019-04-27T01:18:12.311Z,13.47
2019-04-27T01:20:35.762Z,13.53
2019-04-27T01:23:07.235Z,13.13
2019-04-27T01:26:03.166Z,13.50
2019-04-27T01:28:39.915Z,15.00
2019-04-27T01:31:12.956Z,13.93
2019-04-27T01:33:44.553Z,13.13
2019-04-27T01:36:15.807Z,14.77
2019-04-27T01:38:47.160Z,15.00
2019-04-27T01:41:19.166Z,13.67
2019-04-27T01:43:50.591Z,14.77
2019-04-27T01:46:21.659Z,14.13
2019-04-27T01:48:52.733Z,14.60
2019-04-27T01:51:23.741Z,14.30
2019-04-27T01:53:54.868Z,15.03
2019-04-27T01:56:26.063Z,14.97
2019-04-27T01:58:57.103Z,14.23
2019-04-27T02:01:50.292Z,14.40
2019-04-27T02:04:46.133Z,13.87
2019-04-27T02:07:19.077Z,14.17
2019-04-27T02:09:50.073Z,14.50
2019-04-27T02:12:21.215Z,14.83
2019-04-27T02:14:52.647Z,14.23
2019-04-27T02:17:24.057Z,13.80
2019-04-27T02:19:55.564Z,14.37
2019-04-27T02:22:26.806Z,14.83
2019-04-27T02:24:59.093Z,14.70
2019-04-27T02:27:31.937Z,13.87
2019-04-27T02:30:26.257Z,14.50
2019-04-27T02:33:23.267Z,14.83
2019-04-27T02:35:54.560Z,13.23
2019-04-27T02:38:25.832Z,15.93
2019-04-27T02:41:06.554Z,14.73
2019-04-27T02:43:51.842Z,14.53
2019-04-27T02:46:23.052Z,15.50
2019-04-27T02:49:00.100Z,15.03
2019-04-27T02:51:33.690Z,14.33
2019-04-27T02:54:05.060Z,14.23
2019-04-27T02:56:36.176Z,15.20
2019-04-27T02:59:09.561Z,14.10
2019-04-27T03:01:46.968Z,15.17
2019-04-27T03:04:20.263Z,14.70
2019-04-27T03:06:50.878Z,13.43
2019-04-27T03:09:21.943Z,14.53
2019-04-27T03:11:53.715Z,13.67
2019-04-27T03:14:55.940Z,14.87
2019-04-27T03:17:52.485Z,15.23
2019-04-27T03:20:51.664Z,14.97
2019-04-27T03:23:22.767Z,14.33
2019-04-27T03:26:07.539Z,13.60
2019-04-27T03:28:40.187Z,14.77
2019-04-27T03:31:13.535Z,14.67
2019-04-27T03:33:44.886Z,14.67
2019-04-27T03:36:16.197Z,15.23
2019-04-27T03:38:49.812Z,14.37
2019-04-27T03:41:20.517Z,14.63
2019-04-27T03:43:52.163Z,14.17
2019-04-27T03:46:23.663Z,14.53
2019-04-27T03:48:55.245Z,14.50
2019-04-27T03:51:34.886Z,14.53
2019-04-27T03:54:25.182Z,14.67
2019-04-27T03:57:19.910Z,13.77
2019-04-27T04:00:06.292Z,14.47
2019-04-27T04:02:40.413Z,14.40
2019-04-27T04:05:12.021Z,14.67
2019-04-27T04:07:43.666Z,13.23
2019-04-27T04:10:15.236Z,13.97
2019-04-27T04:12:56.396Z,14.03
2019-04-27T04:15:39.850Z,13.90
2019-04-27T04:18:12.216Z,15.10
2019-04-27T04:20:43.621Z,15.03
2019-04-27T04:23:15.147Z,14.17
2019-04-27T04:25:46.526Z,14.20
2019-04-27T04:28:19.907Z,15.23
2019-04-27T04:30:51.274Z,14.20
2019-04-27T04:33:22.581Z,14.33
2019-04-27T04:35:53.618Z,14.67
2019-04-27T04:38:25.116Z,15.83
2019-04-27T04:41:02.086Z,16.47
2019-04-27T04:43:55.181Z,15.50
2019-04-27T04:46:43.952Z,16.50
2019-04-27T04:49:15.103Z,19.67
2019-04-27T04:51:46.174Z,18.90
2019-04-27T04:54:19.642Z,18.27
2019-04-27T04:56:50.016Z,18.10
2019-04-27T04:59:21.094Z,18.23
2019-04-27T05:01:52.574Z,19.33
2019-04-27T05:04:23.535Z,16.97
2019-04-27T05:06:54.573Z,16.97
2019-04-27T05:09:25.618Z,17.30
2019-04-27T05:11:58.607Z,18.60
2019-04-27T05:14:29.954Z,17.70
2019-04-27T05:17:01.035Z,16.97
2019-04-27T05:19:32.518Z,16.60
2019-04-27T05:22:04.003Z,18.27
2019-04-27T05:24:35.351Z,16.90
2019-04-27T05:27:06.508Z,17.90
2019-04-27T05:29:38.944Z,16.07
2019-04-27T05:32:10.649Z,19.20
2019-04-27T05:34:41.865Z,18.57
2019-04-27T05:37:13.359Z,16.77
2019-04-27T05:39:44.716Z,17.30
2019-04-27T05:42:17.061Z,18.00
2019-04-27T05:45:24.805Z,18.17
2019-04-27T05:48:04.447Z,18.57
2019-04-27T05:50:41.217Z,18.60
2019-04-27T05:53:08.853Z,18.53
2019-04-27T05:55:39.975Z,17.20
2019-04-27T05:58:11.241Z,16.43
2019-04-27T06:00:43.149Z,16.77
2019-04-27T06:03:14.587Z,17.73
2019-04-27T06:05:46.124Z,17.43
2019-04-27T06:08:18.785Z,17.60
2019-04-27T06:10:50.717Z,17.47
2019-04-27T06:13:21.861Z,16.53
2019-04-27T06:15:52.910Z,19.63
2019-04-27T06:18:24.078Z,17.13
2019-04-27T06:20:55.982Z,17.27
2019-04-27T06:23:28.957Z,17.93
2019-04-27T06:26:01.855Z,15.77
2019-04-27T06:28:33.323Z,16.50
2019-04-27T06:31:04.784Z,15.47
2019-04-27T06:33:36.140Z,16.50
2019-04-27T06:36:07.317Z,15.40
2019-04-27T06:38:39.339Z,16.40
2019-04-27T06:41:11.015Z,14.97
2019-04-27T06:43:42.401Z,16.73
2019-04-27T06:46:13.966Z,14.77
2019-04-27T06:48:45.071Z,15.60
2019-04-27T06:51:16.705Z,16.27
2019-04-27T06:53:49.415Z,16.17
2019-04-27T06:56:20.909Z,16.23
2019-04-27T06:58:52.192Z,16.03
2019-04-27T07:01:23.524Z,15.43
2019-04-27T07:03:54.972Z,16.50
2019-04-27T07:06:26.350Z,15.97
2019-04-27T07:08:59.597Z,16.70
2019-04-27T07:11:30.682Z,16.03
2019-04-27T07:14:01.754Z,16.60
2019-04-27T07:16:32.729Z,15.87
2019-04-27T07:19:03.825Z,15.97
2019-04-27T07:21:34.847Z,15.03
2019-04-27T07:24:05.894Z,14.77
2019-04-27T07:26:38.886Z,14.80
2019-04-27T07:29:09.888Z,15.93
2019-04-27T07:31:40.943Z,16.70
2019-04-27T07:34:12.436Z,16.30
2019-04-27T07:36:43.572Z,16.53
2019-04-27T07:39:13.410Z,16.40
2019-04-27T07:41:44.749Z,15.30
2019-04-27T07:44:40.620Z,15.70
2019-04-27T07:47:31.072Z,15.67
2019-04-27T10:16:31.114Z,42.47
